Time;durP1;ratioP1;P1;durP2;ratioP2;P2;SDS_P1;SDS_P2;PMS_P1;PMS_P2;Temp;Humidity;BMP_temperature;BMP_pressure;BME280_temperature;BME280_humidity;BME280_pressure;Samples;Min_cycle;Max_cycle;Signal;HPM_P1;HPM_P2
2021/12/25 00:01:31;;;;;;;0.15;0.15;;;2.90;99.90;226.50;231333.00;;;;5034784;28;20207;-72
2021/12/25 00:03:59;;;;;;;0.10;0.10;;;2.90;99.90;226.50;231333.00;;;;5029166;28;20306;-72
2021/12/25 00:06:29;;;;;;;0.20;0.20;;;3.00;99.90;226.50;231333.00;;;;5014981;28;20207;-72
2021/12/25 00:08:57;;;;;;;0.10;0.10;;;3.00;99.90;226.50;231333.00;;;;5015685;28;20199;-72
2021/12/25 00:11:25;;;;;;;0.10;0.10;;;3.00;99.90;226.50;231333.00;;;;5016664;28;20202;-72
2021/12/25 00:13:53;;;;;;;0.10;0.10;;;3.00;99.90;226.50;231333.00;;;;5015515;28;20673;-72
2021/12/25 00:16:20;;;;;;;0.10;0.10;;;2.90;99.90;226.50;231333.00;;;;5014993;28;20196;-72
2021/12/25 00:18:49;;;;;;;0.10;0.10;;;2.90;99.90;226.50;231333.00;;;;5028684;28;20278;-72
2021/12/25 00:21:17;;;;;;;0.10;0.10;;;2.90;99.90;226.50;231333.00;;;;5034119;28;20225;-72
2021/12/25 00:23:46;;;;;;;0.10;0.10;;;2.90;99.90;226.50;231333.00;;;;5034334;28;20211;-72
2021/12/25 00:26:27;;;;;;;0.10;0.10;;;2.90;99.90;226.50;231333.00;;;;5018853;28;20196;-72
2021/12/25 00:29:02;;;;;;;0.13;0.13;;;2.90;99.90;226.50;231333.00;;;;5015285;28;20199;-72
2021/12/25 00:31:48;;;;;;;0.10;0.10;;;2.90;99.90;226.50;231333.00;;;;5015295;28;20195;-72
2021/12/25 00:34:17;;;;;;;0.10;0.10;;;2.90;99.90;226.50;231333.00;;;;5023376;28;20642;-72
2021/12/25 00:36:45;;;;;;;0.10;0.10;;;2.80;99.90;226.50;231333.00;;;;5014468;28;20199;-72
2021/12/25 00:39:14;;;;;;;0.10;0.10;;;2.90;99.90;226.50;231333.00;;;;5014765;28;20231;-74
2021/12/25 00:41:43;;;;;;;0.10;0.10;;;2.80;99.90;226.50;231333.00;;;;5012935;28;20196;-74
2021/12/25 00:44:11;;;;;;;0.10;0.10;;;2.90;99.90;226.50;231333.00;;;;5014811;28;20212;-74
2021/12/25 00:46:40;;;;;;;0.10;0.10;;;2.90;99.90;226.50;231333.00;;;;5020273;28;20562;-74
2021/12/25 00:49:08;;;;;;;0.10;0.10;;;2.90;99.90;226.50;231333.00;;;;5031262;28;20706;-74
2021/12/25 00:51:36;;;;;;;0.10;0.10;;;2.90;99.90;226.50;231333.00;;;;5015120;28;20196;-72
2021/12/25 00:54:05;;;;;;;0.10;0.10;;;2.80;99.90;226.50;231333.00;;;;5031895;28;20195;-72
2021/12/25 00:56:34;;;;;;;0.10;0.10;;;2.80;99.90;226.50;231333.00;;;;5029984;28;20192;-72
2021/12/25 00:59:02;;;;;;;0.20;0.20;;;2.80;99.90;226.50;231333.00;;;;5014227;28;20605;-72
2021/12/25 01:01:31;;;;;;;0.10;0.10;;;2.80;99.90;226.50;231333.00;;;;5074161;22;20267;-74
2021/12/25 01:03:59;;;;;;;0.10;0.10;;;2.80;99.90;226.50;231333.00;;;;5073859;28;20517;-73
2021/12/25 01:06:28;;;;;;;0.10;0.10;;;2.80;99.90;226.50;231333.00;;;;5071839;28;20292;-73
2021/12/25 01:08:56;;;;;;;0.10;0.10;;;2.80;99.90;226.50;231333.00;;;;5055355;28;20213;-73
2021/12/25 01:11:28;;;;;;;0.10;0.10;;;2.80;99.90;226.50;231333.00;;;;5063774;28;20214;-74
2021/12/25 01:14:04;;;;;;;0.10;0.10;;;2.80;99.90;226.50;231333.00;;;;5028083;28;20289;-74
2021/12/25 01:17:18;;;;;;;0.10;0.10;;;2.80;99.90;226.50;231333.00;;;;5051717;28;20670;-73
2021/12/25 01:23:09;;;;;;;0.20;0.20;;;2.90;99.90;226.50;231333.00;;;;5045401;28;20198;-73
2021/12/25 01:31:18;;;;;;;0.10;0.10;;;2.70;99.90;226.50;231333.00;;;;5051710;28;20248;-73
2021/12/25 01:34:21;;;;;;;0.10;0.10;;;2.70;99.90;226.50;231333.00;;;;5037824;28;20199;-73
2021/12/25 01:37:20;;;;;;;0.10;0.10;;;2.70;99.90;226.50;231333.00;;;;5050735;28;20678;-73
2021/12/25 01:40:39;;;;;;;0.10;0.10;;;2.70;99.90;226.50;231333.00;;;;5041660;28;20624;-73
2021/12/25 01:49:14;;;;;;;0.10;0.10;;;2.60;99.90;226.50;231333.00;;;;5046321;28;20201;-73
2021/12/25 01:51:42;;;;;;;0.10;0.10;;;2.60;99.90;226.50;231333.00;;;;5050884;28;20210;-73
2021/12/25 01:54:10;;;;;;;0.13;0.13;;;2.60;99.90;226.50;231333.00;;;;5040336;28;20221;-73
2021/12/25 01:56:40;;;;;;;0.10;0.10;;;2.60;99.90;226.50;231333.00;;;;5031637;28;20227;-74
2021/12/25 01:59:08;;;;;;;0.10;0.10;;;2.70;99.90;226.50;231333.00;;;;5026724;28;20190;-73
2021/12/25 02:01:37;;;;;;;0.10;0.10;;;2.70;99.90;226.50;231333.00;;;;5044786;28;20246;-73
2021/12/25 02:04:07;;;;;;;0.10;0.10;;;2.60;99.90;226.50;231333.00;;;;5015209;28;20227;-73
2021/12/25 02:06:36;;;;;;;0.10;0.10;;;2.60;99.90;226.50;231333.00;;;;5030467;28;20194;-73
2021/12/25 02:09:06;;;;;;;0.10;0.10;;;2.50;99.90;226.50;231333.00;;;;5023804;28;20195;-73
2021/12/25 02:11:34;;;;;;;0.10;0.10;;;2.50;99.90;226.50;231333.00;;;;5050803;28;20213;-73
2021/12/25 02:14:04;;;;;;;0.10;0.10;;;2.50;99.90;226.50;231333.00;;;;5048173;28;20198;-73
2021/12/25 02:16:48;;;;;;;0.10;0.10;;;2.40;99.90;226.50;231333.00;;;;5026114;28;20233;-73
2021/12/25 02:19:32;;;;;;;0.10;0.10;;;2.40;99.90;226.50;231333.00;;;;5046713;28;20198;-73
2021/12/25 02:22:08;;;;;;;0.10;0.10;;;2.30;99.90;226.50;231333.00;;;;5050779;28;20678;-73
2021/12/25 02:24:38;;;;;;;0.10;0.10;;;2.40;99.90;226.50;231333.00;;;;5033362;28;20249;-73
2021/12/25 02:27:07;;;;;;;0.10;0.10;;;2.40;99.90;226.50;231333.00;;;;5051483;28;20675;-73
2021/12/25 02:29:35;;;;;;;0.10;0.10;;;2.30;99.90;226.50;231333.00;;;;5033323;28;20221;-74
2021/12/25 02:32:07;;;;;;;0.10;0.10;;;2.30;99.90;226.50;231333.00;;;;5014587;28;20222;-73
2021/12/25 02:34:38;;;;;;;0.10;0.10;;;2.30;99.90;226.50;231333.00;;;;5016846;28;20708;-74
2021/12/25 02:37:08;;;;;;;0.10;0.10;;;2.30;99.90;226.50;231333.00;;;;5039475;28;20206;-73
2021/12/25 02:39:39;;;;;;;0.10;0.10;;;2.30;99.90;226.50;231333.00;;;;5027490;28;20273;-74
2021/12/25 02:42:09;;;;;;;0.10;0.10;;;2.30;99.90;226.50;231333.00;;;;5032070;28;20252;-73
2021/12/25 02:44:39;;;;;;;0.10;0.10;;;2.30;99.90;226.50;231333.00;;;;5036168;28;20242;-73
2021/12/25 02:47:16;;;;;;;0.10;0.10;;;2.30;99.90;226.50;231333.00;;;;5031843;28;20187;-73
2021/12/25 02:49:49;;;;;;;0.13;0.13;;;2.40;99.90;226.50;231333.00;;;;5031009;28;20253;-73
2021/12/25 02:52:22;;;;;;;0.15;0.15;;;2.40;99.90;226.50;231333.00;;;;5049178;28;20612;-73
2021/12/25 02:54:50;;;;;;;0.10;0.10;;;2.40;99.90;226.50;231333.00;;;;5050610;28;20221;-73
2021/12/25 02:57:18;;;;;;;0.10;0.10;;;2.40;99.90;226.50;231333.00;;;;5049827;28;20190;-73
2021/12/25 02:59:46;;;;;;;0.10;0.10;;;2.40;99.90;226.50;231333.00;;;;5040452;28;20225;-73
2021/12/25 03:02:17;;;;;;;0.20;0.20;;;2.40;99.90;226.50;231333.00;;;;5031816;28;20199;-74
2021/12/25 03:04:50;;;;;;;0.10;0.10;;;2.40;99.90;226.50;231333.00;;;;5031772;28;20257;-73
2021/12/25 03:07:19;;;;;;;0.20;0.20;;;2.40;99.90;226.50;231333.00;;;;5049639;28;20194;-73
2021/12/25 03:09:51;;;;;;;0.10;0.10;;;2.40;99.90;226.50;231333.00;;;;5049594;28;20675;-73
2021/12/25 03:12:28;;;;;;;0.10;0.10;;;2.30;99.90;226.50;231333.00;;;;5047045;28;20604;-73
2021/12/25 03:15:06;;;;;;;0.10;0.10;;;2.40;99.90;226.50;231333.00;;;;5030466;28;20202;-73
2021/12/25 03:17:36;;;;;;;0.10;0.10;;;2.40;99.90;226.50;231333.00;;;;5029821;28;20622;-73
2021/12/25 03:20:08;;;;;;;0.10;0.10;;;2.40;99.90;226.50;231333.00;;;;5039465;28;20252;-73
2021/12/25 03:22:39;;;;;;;0.10;0.10;;;2.40;99.90;226.50;231333.00;;;;5033282;28;20199;-73
2021/12/25 03:25:12;;;;;;;0.13;0.13;;;2.40;99.90;226.50;231333.00;;;;5049332;28;20218;-73
2021/12/25 03:27:43;;;;;;;0.10;0.10;;;2.30;99.90;226.50;231333.00;;;;5037601;28;20191;-73
2021/12/25 03:30:14;;;;;;;0.10;0.10;;;2.30;99.90;226.50;231333.00;;;;5029700;28;20209;-73
2021/12/25 03:32:45;;;;;;;0.10;0.10;;;2.20;99.90;226.50;231333.00;;;;5025663;28;20187;-73
2021/12/25 03:35:14;;;;;;;0.10;0.10;;;2.20;99.90;226.50;231333.00;;;;5036269;28;20191;-73
2021/12/25 03:37:43;;;;;;;0.10;0.10;;;2.10;99.90;226.50;231333.00;;;;5041976;28;20655;-73
2021/12/25 03:40:12;;;;;;;0.10;0.10;;;2.10;99.90;226.50;231333.00;;;;5032980;28;20260;-73
2021/12/25 03:42:40;;;;;;;0.10;0.10;;;2.00;99.90;226.50;231333.00;;;;5033820;28;20198;-73
2021/12/25 03:45:09;;;;;;;0.10;0.10;;;2.00;99.90;226.50;231333.00;;;;5030035;28;20219;-73
2021/12/25 03:47:39;;;;;;;0.17;0.17;;;2.00;99.90;226.50;231333.00;;;;5014634;28;20207;-73
2021/12/25 03:53:10;;;;;;;0.20;0.20;;;2.00;99.90;226.50;231333.00;;;;5013731;28;20203;-73
2021/12/25 03:58:28;;;;;;;0.10;0.10;;;2.00;99.90;226.50;231333.00;;;;5031546;28;20737;-73
2021/12/25 04:01:01;;;;;;;0.20;0.20;;;1.90;99.90;226.50;231333.00;;;;5045363;28;20562;-73
2021/12/25 04:03:42;;;;;;;0.10;0.10;;;1.90;99.90;226.50;231333.00;;;;5023023;28;20194;-73
2021/12/25 04:06:11;;;;;;;0.20;0.20;;;1.90;99.90;226.50;231333.00;;;;5032406;28;20597;-73
2021/12/25 04:08:44;;;;;;;0.17;0.17;;;2.00;99.90;226.50;231333.00;;;;5025441;28;20191;-73
2021/12/25 04:11:24;;;;;;;0.10;0.10;;;2.00;99.90;226.50;231333.00;;;;5050735;28;20710;-75
2021/12/25 04:13:52;;;;;;;0.20;0.20;;;1.90;99.90;226.50;231333.00;;;;5050712;28;20690;-73
2021/12/25 04:16:23;;;;;;;0.10;0.10;;;1.90;99.90;226.50;231333.00;;;;5032316;28;20269;-74
2021/12/25 04:18:51;;;;;;;0.10;0.10;;;1.80;99.90;226.50;231333.00;;;;5030219;28;20191;-73
2021/12/25 04:21:19;;;;;;;0.10;0.10;;;1.90;99.90;226.50;231333.00;;;;5013326;28;20305;-73
2021/12/25 04:23:49;;;;;;;0.10;0.10;;;1.90;99.90;226.50;231333.00;;;;5030941;28;20254;-73
2021/12/25 04:26:19;;;;;;;0.10;0.10;;;1.90;99.90;226.50;231333.00;;;;5048817;28;20218;-73
2021/12/25 04:29:00;;;;;;;0.10;0.10;;;1.90;99.90;226.50;231333.00;;;;5032398;28;20683;-73
2021/12/25 04:31:35;;;;;;;0.10;0.10;;;1.90;99.90;226.50;231333.00;;;;5030798;28;20222;-73
2021/12/25 04:48:46;;;;;;;0.10;0.10;;;1.80;99.90;226.50;231333.00;;;;5027542;28;20204;-73
2021/12/25 05:02:22;;;;;;;0.10;0.10;;;1.70;99.90;226.50;231333.00;;;;5017334;28;20222;-74
2021/12/25 05:05:14;;;;;;;0.10;0.10;;;1.70;99.90;226.50;231333.00;;;;5037415;28;20300;-74
2021/12/25 05:07:55;;;;;;;0.10;0.10;;;1.70;99.90;226.50;231333.00;;;;5057803;28;20588;-74
2021/12/25 05:10:23;;;;;;;0.10;0.10;;;1.70;99.90;226.50;231333.00;;;;5059290;28;20211;-74
2021/12/25 05:12:52;;;;;;;0.20;0.20;;;1.70;99.90;226.50;231333.00;;;;5055290;28;20252;-73
2021/12/25 05:15:21;;;;;;;0.10;0.10;;;1.60;99.90;226.50;231333.00;;;;5052872;28;20207;-74
2021/12/25 05:17:49;;;;;;;0.10;0.10;;;1.60;99.90;226.50;231333.00;;;;5033677;28;20198;-74
2021/12/25 05:20:18;;;;;;;0.10;0.10;;;1.60;99.90;226.50;231333.00;;;;5051642;28;20229;-74
2021/12/25 05:22:46;;;;;;;0.20;0.20;;;1.60;99.90;226.50;231333.00;;;;5034626;28;20194;-73
2021/12/25 05:25:15;;;;;;;0.20;0.20;;;1.60;99.90;226.50;231333.00;;;;5035009;28;20489;-74
2021/12/25 05:27:53;;;;;;;0.17;0.17;;;1.50;99.90;226.50;231333.00;;;;5050613;28;20616;-74
2021/12/25 05:30:21;;;;;;;0.20;0.20;;;1.40;99.90;226.50;231333.00;;;;5032123;28;20242;-74
2021/12/25 05:33:09;;;;;;;0.10;0.10;;;1.40;99.90;226.50;231333.00;;;;5033584;28;21634;-73
2021/12/25 05:36:15;;;;;;;0.20;0.20;;;1.40;99.90;226.50;231333.00;;;;4990931;28;20527;-74
2021/12/25 05:38:56;;;;;;;0.10;0.10;;;1.40;99.90;226.50;231333.00;;;;4991469;28;20200;-73
2021/12/25 05:41:31;;;;;;;0.10;0.10;;;1.40;99.90;226.50;231333.00;;;;5016467;28;20306;-74
2021/12/25 05:44:06;;;;;;;0.10;0.10;;;1.40;99.90;226.50;231333.00;;;;5032109;28;20193;-74
2021/12/25 05:46:53;;;;;;;0.20;0.20;;;1.40;99.90;226.50;231333.00;;;;5030175;28;20219;-74
2021/12/25 05:49:24;;;;;;;0.20;0.20;;;1.40;99.90;226.50;231333.00;;;;5050721;28;20244;-74
2021/12/25 05:52:10;;;;;;;0.20;0.20;;;1.30;99.90;226.50;231333.00;;;;5035563;28;20564;-74
2021/12/25 05:54:54;;;;;;;0.10;0.10;;;1.30;99.90;226.50;231333.00;;;;5053300;28;20190;-74
2021/12/25 05:57:41;;;;;;;0.20;0.20;;;1.30;99.90;226.50;231333.00;;;;5039334;28;20210;-74
2021/12/25 06:00:22;;;;;;;0.20;0.20;;;1.30;99.90;226.50;231333.00;;;;5035048;28;20229;-74
2021/12/25 06:02:51;;;;;;;0.20;0.20;;;1.20;99.90;226.50;231333.00;;;;5025548;28;20201;-74
2021/12/25 06:05:27;;;;;;;0.20;0.20;;;1.20;99.90;226.50;231333.00;;;;5050434;28;20214;-76
2021/12/25 06:07:55;;;;;;;0.15;0.15;;;1.20;99.90;226.50;231333.00;;;;5052223;28;20193;-74
2021/12/25 06:10:23;;;;;;;0.10;0.10;;;1.10;99.90;226.50;231333.00;;;;5048016;28;20231;-74
2021/12/25 06:12:55;;;;;;;0.10;0.10;;;1.20;99.90;226.50;231333.00;;;;5050967;28;20194;-74
2021/12/25 06:15:26;;;;;;;0.20;0.20;;;1.20;99.90;226.50;231333.00;;;;5033943;28;20245;-74
2021/12/25 06:18:03;;;;;;;0.10;0.10;;;1.10;99.90;226.50;231333.00;;;;5039593;28;20199;-74
2021/12/25 06:20:39;;;;;;;0.10;0.10;;;1.10;99.90;226.50;231333.00;;;;5014846;28;20225;-74
2021/12/25 06:23:30;;;;;;;0.10;0.10;;;1.10;99.90;226.50;231333.00;;;;5014793;28;20254;-74
2021/12/25 06:26:04;;;;;;;0.10;0.10;;;1.10;99.90;226.50;231333.00;;;;5042855;28;21788;-74
2021/12/25 06:28:43;;;;;;;0.20;0.20;;;1.10;99.90;226.50;231333.00;;;;5043149;28;20201;-74
2021/12/25 06:31:25;;;;;;;0.10;0.10;;;1.10;99.90;226.50;231333.00;;;;5044857;28;20287;-74
2021/12/25 06:33:58;;;;;;;0.10;0.10;;;1.10;99.90;226.50;231333.00;;;;5017276;28;20195;-74
2021/12/25 06:36:43;;;;;;;0.20;0.20;;;1.20;99.90;226.50;231333.00;;;;5014500;28;20293;-74
2021/12/25 06:39:24;;;;;;;0.20;0.20;;;1.20;99.90;226.50;231333.00;;;;5028095;28;20231;-74
2021/12/25 06:42:08;;;;;;;0.10;0.10;;;1.10;99.90;226.50;231333.00;;;;5035634;28;20289;-74
2021/12/25 06:44:37;;;;;;;0.10;0.10;;;1.10;99.90;226.50;231333.00;;;;5026334;28;20234;-74
2021/12/25 06:47:07;;;;;;;0.10;0.10;;;1.10;99.90;226.50;231333.00;;;;5026559;28;20233;-74
2021/12/25 06:49:37;;;;;;;0.10;0.10;;;1.10;99.90;226.50;231333.00;;;;5024965;28;20574;-74
2021/12/25 06:52:34;;;;;;;0.20;0.20;;;1.10;99.90;226.50;231333.00;;;;5050910;28;20206;-74
2021/12/25 06:55:14;;;;;;;0.10;0.10;;;1.00;99.90;226.50;231333.00;;;;5050183;28;20198;-73
2021/12/25 06:58:04;;;;;;;0.20;0.20;;;1.00;99.90;226.50;231333.00;;;;5037354;28;20202;-74
2021/12/25 07:00:33;;;;;;;0.20;0.20;;;1.00;99.90;226.50;231333.00;;;;5033764;28;20505;-75
2021/12/25 07:03:06;;;;;;;0.10;0.10;;;0.90;99.90;226.50;231333.00;;;;5049923;28;20187;-73
2021/12/25 07:05:53;;;;;;;0.10;0.10;;;0.80;99.90;226.50;231333.00;;;;5033916;28;20226;-74
2021/12/25 07:08:32;;;;;;;0.15;0.15;;;0.80;99.90;226.50;231333.00;;;;5014081;28;20195;-75
2021/12/25 07:11:11;;;;;;;0.10;0.10;;;0.80;99.90;226.50;231333.00;;;;5024468;28;20214;-73
2021/12/25 07:13:51;;;;;;;0.10;0.10;;;0.80;99.90;226.50;231333.00;;;;5051547;28;20670;-74
2021/12/25 07:16:54;;;;;;;0.10;0.10;;;0.80;99.90;226.50;231333.00;;;;5029210;28;20191;-73
2021/12/25 07:19:41;;;;;;;0.20;0.20;;;0.80;99.90;226.50;231333.00;;;;5045523;28;20249;-73
2021/12/25 07:22:29;;;;;;;0.17;0.17;;;0.90;99.90;226.50;231333.00;;;;5031677;28;20290;-73
2021/12/25 07:25:15;;;;;;;0.15;0.15;;;0.90;99.90;226.50;231333.00;;;;5021545;28;20558;-74
2021/12/25 07:28:15;;;;;;;0.10;0.10;;;0.80;99.90;226.50;231333.00;;;;5049531;28;20205;-74
2021/12/25 07:30:43;;;;;;;0.20;0.20;;;0.90;99.90;226.50;231333.00;;;;5049553;28;20222;-74
2021/12/25 07:33:11;;;;;;;0.13;0.13;;;0.90;99.90;226.50;231333.00;;;;5031570;28;20201;-76
2021/12/25 07:35:40;;;;;;;0.10;0.10;;;0.80;99.90;226.50;231333.00;;;;5031423;28;20191;-73
2021/12/25 07:38:08;;;;;;;0.13;0.13;;;0.90;99.90;226.50;231333.00;;;;5039966;28;20233;-73
2021/12/25 07:40:37;;;;;;;0.13;0.13;;;0.90;99.90;226.50;231333.00;;;;5030124;28;20245;-73
2021/12/25 07:43:05;;;;;;;0.20;0.20;;;0.90;99.90;226.50;231333.00;;;;5047514;28;20194;-75
2021/12/25 07:46:03;;;;;;;0.20;0.20;;;0.90;99.90;226.50;231333.00;;;;5030093;28;20246;-73
2021/12/25 07:48:33;;;;;;;0.20;0.20;;;0.80;99.90;226.50;231333.00;;;;5031355;28;20214;-73
2021/12/25 07:51:03;;;;;;;0.20;0.20;;;0.80;99.90;226.50;231333.00;;;;5043816;28;20279;-73
2021/12/25 07:53:32;;;;;;;0.10;0.10;;;0.90;99.90;226.50;231333.00;;;;5042796;28;20195;-75
2021/12/25 07:56:00;;;;;;;0.13;0.13;;;0.80;99.90;226.50;231333.00;;;;5039621;28;20207;-74
2021/12/25 07:58:28;;;;;;;0.10;0.10;;;0.80;99.90;226.50;231333.00;;;;5036245;28;20205;-73
2021/12/25 08:00:57;;;;;;;0.10;0.10;;;0.80;99.90;226.50;231333.00;;;;5039384;28;20264;-74
2021/12/25 08:03:25;;;;;;;0.10;0.10;;;0.80;99.90;226.50;231333.00;;;;5030316;28;20203;-73
2021/12/25 08:05:53;;;;;;;0.20;0.20;;;0.70;99.90;226.50;231333.00;;;;5042634;28;20198;-73
2021/12/25 08:08:22;;;;;;;0.10;0.10;;;0.80;99.90;226.50;231333.00;;;;5046018;28;20190;-73
2021/12/25 08:10:51;;;;;;;0.10;0.10;;;0.80;99.90;226.50;231333.00;;;;5052714;28;20210;-74
2021/12/25 08:13:19;;;;;;;0.20;0.20;;;0.80;99.90;226.50;231333.00;;;;5053073;28;20232;-76
2021/12/25 08:15:46;;;;;;;0.10;0.10;;;0.80;99.90;226.50;231333.00;;;;5038557;28;20187;-76
2021/12/25 08:18:15;;;;;;;0.10;0.10;;;0.70;99.90;226.50;231333.00;;;;5034470;28;20248;-75
2021/12/25 08:21:04;;;;;;;0.10;0.10;;;0.70;99.90;226.50;231333.00;;;;5034766;28;20284;-76
2021/12/25 08:23:54;;;;;;;0.20;0.20;;;0.70;99.90;226.50;231333.00;;;;5048302;28;20573;-76
2021/12/25 08:26:42;;;;;;;0.10;0.10;;;0.70;99.90;226.50;158408.00;;;;5048308;28;20745;-76
2021/12/25 08:29:28;;;;;;;0.15;0.15;;;0.70;99.90;226.50;231333.00;;;;5044005;28;20233;-76
2021/12/25 08:32:15;;;;;;;0.10;0.10;;;0.70;99.90;226.50;231333.00;;;;5041880;28;20298;-76
2021/12/25 08:35:02;;;;;;;0.20;0.20;;;0.70;99.90;226.50;158862.00;;;;5045773;28;20205;-76
2021/12/25 08:37:35;;;;;;;0.10;0.10;;;0.70;99.90;226.50;231333.00;;;;5018744;28;20199;-75
2021/12/25 08:40:07;;;;;;;0.10;0.10;;;0.70;99.90;226.50;231333.00;;;;5047612;28;20241;-76
2021/12/25 08:42:36;;;;;;;0.10;0.10;;;0.70;99.90;226.50;231333.00;;;;5044097;28;20206;-76
2021/12/25 08:45:09;;;;;;;0.10;0.10;;;0.70;99.90;226.50;231333.00;;;;5037576;28;20249;-76
2021/12/25 08:47:38;;;;;;;0.20;0.20;;;0.60;99.90;226.50;231333.00;;;;5044411;28;20269;-76
2021/12/25 08:50:11;;;;;;;0.10;0.10;;;0.50;99.90;226.50;231333.00;;;;5053644;28;20206;-76
2021/12/25 08:52:39;;;;;;;0.20;0.20;;;0.50;99.90;226.50;231333.00;;;;5033548;28;20202;-76
2021/12/25 08:55:08;;;;;;;0.10;0.10;;;0.50;99.90;226.50;231333.00;;;;5033220;28;20226;-76
2021/12/25 08:57:36;;;;;;;0.20;0.20;;;0.60;99.90;226.50;231333.00;;;;5036909;28;20237;-76
2021/12/25 09:00:07;;;;;;;0.20;0.20;;;0.60;99.90;226.50;231333.00;;;;5017421;28;1018998;-76
2021/12/25 09:02:35;;;;;;;0.20;0.20;;;0.50;99.90;226.50;231333.00;;;;5045726;28;20198;-76
2021/12/25 09:05:05;;;;;;;0.10;0.10;;;0.50;99.90;226.50;231333.00;;;;5047048;28;20686;-75
2021/12/25 09:07:33;;;;;;;0.20;0.20;;;0.50;99.90;226.50;231333.00;;;;5032425;28;20223;-76
2021/12/25 09:10:01;;;;;;;0.20;0.20;;;0.50;99.90;226.50;231333.00;;;;5033933;28;20219;-75
2021/12/25 09:12:33;;;;;;;0.10;0.10;;;0.40;99.90;226.50;231333.00;;;;5042046;28;20604;-76
2021/12/25 09:15:01;;;;;;;0.20;0.20;;;0.30;99.90;226.50;231333.00;;;;5053305;28;20190;-76
2021/12/25 09:17:29;;;;;;;0.20;0.20;;;0.30;99.90;226.50;231333.00;;;;5052262;28;20558;-76
2021/12/25 09:19:57;;;;;;;0.10;0.10;;;0.30;99.90;226.50;231333.00;;;;5042519;28;20288;-76
2021/12/25 09:22:25;;;;;;;0.15;0.15;;;0.30;99.90;226.50;231333.00;;;;5046461;28;20256;-76
2021/12/25 09:24:53;;;;;;;0.20;0.20;;;0.30;99.90;226.50;231333.00;;;;5051652;28;20198;-76
2021/12/25 09:27:21;;;;;;;0.20;0.20;;;0.30;99.90;226.50;231333.00;;;;5040306;28;20257;-75
2021/12/25 09:29:50;;;;;;;0.20;0.20;;;0.30;99.90;226.50;231333.00;;;;5041928;28;20222;-76
2021/12/25 09:32:18;;;;;;;0.20;0.20;;;0.40;99.90;226.50;231333.00;;;;5036043;28;20240;-76
2021/12/25 09:34:47;;;;;;;0.20;0.20;;;0.30;99.90;226.50;231333.00;;;;5048218;28;20195;-76
2021/12/25 09:37:15;;;;;;;0.10;0.10;;;0.40;99.90;226.50;231333.00;;;;5052092;28;20252;-76
2021/12/25 09:39:43;;;;;;;0.20;0.20;;;0.40;99.90;226.50;231333.00;;;;5052862;28;20186;-76
2021/12/25 09:42:11;;;;;;;0.10;0.10;;;0.30;99.90;226.50;231333.00;;;;5036247;28;20722;-76
2021/12/25 09:44:39;;;;;;;0.20;0.20;;;0.40;99.90;226.50;231333.00;;;;5033348;28;20191;-76
2021/12/25 09:47:08;;;;;;;0.20;0.20;;;0.30;99.90;226.50;231333.00;;;;5033321;28;20562;-76
2021/12/25 09:49:36;;;;;;;0.10;0.10;;;0.30;99.90;226.50;231333.00;;;;5051418;28;20248;-76
2021/12/25 09:52:05;;;;;;;0.13;0.13;;;0.30;99.90;226.50;231333.00;;;;5052762;28;20597;-76
2021/12/25 09:54:33;;;;;;;0.10;0.10;;;0.40;99.90;226.50;231333.00;;;;5052045;28;20203;-76
2021/12/25 09:57:01;;;;;;;0.20;0.20;;;0.40;99.90;226.50;231333.00;;;;5033142;28;20195;-76
2021/12/25 09:59:29;;;;;;;0.10;0.10;;;0.40;99.90;226.50;231333.00;;;;5032703;28;20238;-76
2021/12/25 10:02:00;;;;;;;0.17;0.17;;;0.30;99.90;226.50;231333.00;;;;5036318;28;20199;-76
2021/12/25 10:04:39;;;;;;;0.20;0.20;;;0.30;99.90;226.50;231333.00;;;;5052511;28;20788;-77
2021/12/25 10:07:21;;;;;;;0.10;0.10;;;0.30;99.90;226.50;231333.00;;;;5052444;28;20202;-76
2021/12/25 10:10:01;;;;;;;0.10;0.10;;;0.40;99.90;226.50;231333.00;;;;5044606;28;20273;-76
2021/12/25 10:12:37;;;;;;;0.20;0.20;;;0.40;99.90;226.50;231333.00;;;;5046125;28;20659;-77
2021/12/25 10:15:09;;;;;;;0.10;0.10;;;0.40;99.90;226.50;231333.00;;;;5051006;28;20202;-76
2021/12/25 10:17:46;;;;;;;0.20;0.20;;;0.40;99.90;226.50;231333.00;;;;5039485;28;20202;-76
2021/12/25 10:20:21;;;;;;;0.10;0.10;;;0.40;99.90;226.50;231333.00;;;;5033026;28;20214;-77
2021/12/25 10:23:07;;;;;;;0.13;0.13;;;0.40;99.90;226.50;231333.00;;;;5033295;28;20665;-76
2021/12/25 10:25:44;;;;;;;0.20;0.20;;;0.40;99.90;226.50;231333.00;;;;5040702;28;20191;-76
2021/12/25 10:28:15;;;;;;;0.20;0.20;;;0.40;99.90;226.50;231333.00;;;;5033896;28;20669;-76
2021/12/25 10:30:51;;;;;;;0.15;0.15;;;0.40;99.90;226.50;231333.00;;;;5042615;28;20273;-76
2021/12/25 10:33:33;;;;;;;0.10;0.10;;;0.40;99.90;226.50;231333.00;;;;5032578;28;20256;-76
2021/12/25 10:36:08;;;;;;;0.20;0.20;;;0.40;99.90;226.50;231333.00;;;;5045400;28;20311;-76
2021/12/25 10:38:37;;;;;;;0.20;0.20;;;0.40;99.90;226.50;231333.00;;;;5043330;28;20256;-76
2021/12/25 10:41:19;;;;;;;0.10;0.10;;;0.30;99.90;226.50;231333.00;;;;5032604;28;20277;-76
2021/12/25 10:43:52;;;;;;;0.20;0.20;;;0.30;99.90;226.50;231333.00;;;;5032609;28;20207;-76
2021/12/25 10:46:21;;;;;;;0.10;0.10;;;0.40;99.90;226.50;231333.00;;;;5045677;28;20537;-76
2021/12/25 10:48:49;;;;;;;0.20;0.20;;;0.40;99.90;226.50;231333.00;;;;5051557;28;20241;-75
2021/12/25 10:51:28;;;;;;;0.10;0.10;;;0.40;99.90;226.50;231333.00;;;;5051475;28;20598;-76
2021/12/25 10:53:58;;;;;;;0.20;0.20;;;0.40;99.90;226.50;231333.00;;;;5035583;28;20199;-76
2021/12/25 10:56:38;;;;;;;0.20;0.20;;;0.40;99.90;226.50;231333.00;;;;5051389;28;20603;-76
2021/12/25 10:59:09;;;;;;;0.10;0.10;;;0.50;99.90;226.50;231333.00;;;;5051442;28;20651;-76
2021/12/25 11:01:40;;;;;;;0.17;0.17;;;0.50;99.90;226.50;231333.00;;;;5044286;28;20717;-76
2021/12/25 11:04:28;;;;;;;0.17;0.17;;;0.50;99.90;226.50;231333.00;;;;5052132;28;20686;-76
2021/12/25 11:06:59;;;;;;;0.20;0.20;;;0.50;99.90;226.50;231333.00;;;;5047871;28;20202;-76
2021/12/25 11:09:27;;;;;;;0.20;0.20;;;0.50;99.90;226.50;231333.00;;;;5037098;28;20531;-75
2021/12/25 11:12:16;;;;;;;0.20;0.20;;;0.40;99.90;226.50;231333.00;;;;5036386;28;20187;-76
2021/12/25 11:14:45;;;;;;;0.20;0.20;;;0.30;99.90;226.50;231333.00;;;;5049167;28;20608;-76
2021/12/25 11:17:26;;;;;;;0.13;0.13;;;0.30;99.90;226.50;231333.00;;;;5047543;28;20656;-76
2021/12/25 11:20:00;;;;;;;0.20;0.20;;;0.30;99.90;226.50;231333.00;;;;5050614;28;20213;-76
2021/12/25 11:22:49;;;;;;;0.20;0.20;;;0.20;99.90;226.50;231333.00;;;;5043243;28;20190;-76
2021/12/25 11:25:20;;;;;;;0.17;0.17;;;0.20;99.90;226.50;231333.00;;;;5051410;28;20249;-77
2021/12/25 11:27:50;;;;;;;0.20;0.20;;;0.20;99.90;226.50;231333.00;;;;5051290;28;20721;-76
2021/12/25 11:30:20;;;;;;;0.20;0.20;;;0.30;99.90;226.50;231333.00;;;;5042366;28;20252;-76
2021/12/25 11:32:50;;;;;;;0.20;0.20;;;0.30;99.90;226.50;231333.00;;;;5051176;28;20198;-76
2021/12/25 11:35:19;;;;;;;0.10;0.10;;;0.30;99.90;226.50;231333.00;;;;5048639;28;20663;-76
2021/12/25 11:37:52;;;;;;;0.20;0.20;;;0.30;99.90;226.50;231333.00;;;;5031682;28;20240;-76
2021/12/25 11:40:26;;;;;;;0.10;0.10;;;0.30;99.90;226.50;231333.00;;;;5042937;28;20223;-76
2021/12/25 11:42:59;;;;;;;0.10;0.10;;;0.30;99.90;226.50;231333.00;;;;5050031;28;20692;-76
2021/12/25 11:45:33;;;;;;;0.20;0.20;;;0.30;99.90;226.50;231333.00;;;;5053493;28;20244;-76
2021/12/25 11:48:13;;;;;;;0.20;0.20;;;0.30;99.90;226.50;231333.00;;;;5055731;28;20182;-76
2021/12/25 11:50:45;;;;;;;0.20;0.20;;;0.30;99.90;226.50;231333.00;;;;5044920;28;20747;-76
2021/12/25 11:53:22;;;;;;;0.20;0.20;;;0.30;99.90;226.50;231333.00;;;;5035625;28;20737;-76
2021/12/25 11:56:25;;;;;;;0.20;0.20;;;0.20;99.90;226.50;231333.00;;;;5035393;28;20202;-76
2021/12/25 11:58:56;;;;;;;0.20;0.20;;;0.20;99.90;226.50;231333.00;;;;5051907;28;20198;-76
2021/12/25 12:01:39;;;;;;;0.20;0.20;;;0.20;99.90;226.50;231333.00;;;;5035338;28;20219;-78
2021/12/25 12:04:18;;;;;;;0.20;0.20;;;0.20;99.90;226.50;231333.00;;;;5036922;28;20198;-76